Pagrindinis puslapis
METAR-TAF:

METAR-TAF

Oro uostai :

Kopenhaga, Danija

platuma: 55-37N, ilguma: 012-39E, Aukštis: 5 m

Dabartinis oras

Ataskaita buvo paskelbta 31 minutes, ne 12:20 UTC
Vėjas 11 kt iš Šiaurės
Temperatūra 22°C
Drėgmė 35%
Slėgis 1027 hPa
Matomumas 10 km arba daugiau

METAR: EKCH 011220Z AUTO 36011KT 9999 NCD 22/06 Q1027 NOSIG

Laikas: 14:51 (12:51 UTC)

Prognozė

Ataskaita buvo paskelbta 1 valandą ir 45 minutes, ne 11:06 UTC
Prognozė galioja nuo 01 metu 12 UTC su 02 metu 12 UTC
Vėjas 8 kt iš Šiaurės
Matomumas 10 km arba daugiau
nėra debesų žemiau 1500 m ir nėra kamuolinių lietaus debesų

TAF: EKCH 011106Z 0112/0212 35008KT CAVOK

Orai ataskaitas ir orų prognozės (METAR, TAF).

turimą stotys yra geltonos ir raudonos taškus žemėlapyje.

Perkelti pele per norėdami pamatyti stoties vardą.

Tada spustelėkite, norėdami matyti oro stebėjimo ir prognozės.

Norėdami pakeisti žemėlapį: spustelėkite ant žalios mygtukų su juodo kryžiaus žemyn,; žalią mygtuką su brūkšneliu, jei norite nutolinti; arba žalių rodyklių gretimoms žemėlapius.


METAR-TAF: